Time;durP1;ratioP1;P1;durP2;ratioP2;P2;SDS_P1;SDS_P2;PMS_P1;PMS_P2;Temp;Humidity;BMP_temperature;BMP_pressure;BME280_temperature;BME280_humidity;BME280_pressure;Samples;Min_cycle;Max_cycle;Signal;HPM_P1;HPM_P2
2024/02/13 00:00:00;;;;;;;10.40;7.25;;;;;;;5.23;100.00;101332.44;5206433;28;20041;-80
2024/02/13 00:02:33;;;;;;;12.23;7.95;;;;;;;5.21;100.00;101326.50;5210480;28;20029;-79
2024/02/13 00:05:09;;;;;;;10.70;7.43;;;;;;;5.28;100.00;101343.41;5208387;28;20300;-79
2024/02/13 00:07:41;;;;;;;10.38;7.15;;;;;;;5.28;100.00;101343.41;5204911;28;20468;-80
2024/02/13 00:10:13;;;;;;;10.50;7.63;;;;;;;5.22;100.00;101328.16;5200028;28;20037;-79
2024/02/13 00:12:44;;;;;;;10.77;7.85;;;;;;;5.26;100.00;101342.66;5209851;28;20044;-79
2024/02/13 00:15:20;;;;;;;13.48;8.52;;;;;;;5.26;100.00;101353.03;5201978;28;20403;-79
2024/02/13 00:17:52;;;;;;;12.20;7.03;;;;;;;5.25;100.00;101353.97;5209849;28;20044;-79
2024/02/13 00:20:24;;;;;;;11.77;7.70;;;;;;;5.25;100.00;101360.00;5193815;28;20049;-79
2024/02/13 00:22:59;;;;;;;11.30;7.35;;;;;;;5.24;100.00;101362.69;5207782;28;20029;-80
2024/02/13 00:25:31;;;;;;;8.52;7.15;;;;;;;5.25;100.00;101362.59;5209434;28;20034;-80
2024/02/13 00:28:03;;;;;;;11.73;8.13;;;;;;;5.23;100.00;101372.25;5215751;28;20045;-79
2024/02/13 00:30:35;;;;;;;8.65;7.18;;;;;;;5.25;100.00;101369.56;5201808;28;20053;-79
2024/02/13 00:33:07;;;;;;;14.13;7.60;;;;;;;5.22;100.00;101359.31;5213673;28;20060;-79
2024/02/13 00:35:39;;;;;;;12.27;8.32;;;;;;;5.20;100.00;101361.19;5212037;28;20287;-79
2024/02/13 00:38:14;;;;;;;11.40;7.07;;;;;;;5.13;100.00;101355.47;5208152;28;20042;-79
2024/02/13 00:40:48;;;;;;;11.38;7.55;;;;;;;5.16;100.00;101349.28;5215508;28;20037;-79
2024/02/13 00:43:20;;;;;;;13.02;7.35;;;;;;;5.19;100.00;101370.75;5216862;28;20048;-80
2024/02/13 00:45:52;;;;;;;11.70;8.00;;;;;;;5.12;100.00;101366.78;5209143;28;20579;-79
2024/02/13 00:48:24;;;;;;;9.05;7.65;;;;;;;5.10;100.00;101374.66;5210610;28;20515;-79
2024/02/13 00:50:57;;;;;;;10.57;8.10;;;;;;;5.02;100.00;101368.19;5219455;28;20037;-78
2024/02/13 00:53:51;;;;;;;11.82;7.28;;;;;;;5.07;100.00;101377.41;5212579;28;20049;-79
2024/02/13 00:56:23;;;;;;;12.10;7.22;;;;;;;4.98;100.00;101370.13;5210132;28;20042;-79
2024/02/13 00:59:02;;;;;;;10.90;7.25;;;;;;;5.06;100.00;101364.50;5206636;28;20044;-79
2024/02/13 01:01:38;;;;;;;10.95;7.55;;;;;;;4.94;100.00;101360.81;5208141;28;20061;-78
2024/02/13 01:04:10;;;;;;;8.93;7.95;;;;;;;4.89;100.00;101368.03;5220278;28;20054;-78
2024/02/13 01:06:42;;;;;;;11.25;7.07;;;;;;;4.74;100.00;101342.88;5223322;28;20117;-78
2024/02/13 01:09:14;;;;;;;16.27;8.38;;;;;;;4.61;100.00;101327.91;5206632;28;20052;-78
2024/02/13 01:11:46;;;;;;;11.10;8.23;;;;;;;4.69;100.00;101350.88;5219821;28;20043;-78
2024/02/13 01:14:18;;;;;;;11.48;8.00;;;;;;;4.74;100.00;101361.03;5224996;28;20442;-79
2024/02/13 01:16:50;;;;;;;12.13;7.90;;;;;;;4.87;100.00;101383.66;5221397;28;20662;-78
2024/02/13 01:19:23;;;;;;;12.38;8.10;;;;;;;4.68;100.00;101356.97;5215842;28;20026;-78
2024/02/13 01:21:54;;;;;;;10.90;8.13;;;;;;;4.80;100.00;101384.88;5223600;28;20033;-79
2024/02/13 01:24:27;;;;;;;11.93;8.13;;;;;;;4.81;100.00;101383.13;5221213;28;20033;-78
2024/02/13 01:26:59;;;;;;;11.85;8.65;;;;;;;4.68;100.00;101375.16;5222129;28;20030;-78
2024/02/13 01:29:31;;;;;;;13.90;8.65;;;;;;;4.73;100.00;101378.34;5207384;28;20038;-78
2024/02/13 01:32:04;;;;;;;11.70;8.40;;;;;;;4.64;100.00;101361.50;5223725;28;20038;-79
2024/02/13 01:34:36;;;;;;;12.55;7.80;;;;;;;4.73;100.00;101383.53;5222831;28;20029;-78
2024/02/13 01:37:08;;;;;;;12.57;7.50;;;;;;;4.83;100.00;101400.31;5215611;28;20479;-79
2024/02/13 01:39:40;;;;;;;12.65;8.13;;;;;;;4.68;100.00;101385.53;5227737;28;20038;-78
2024/02/13 01:42:12;;;;;;;17.45;8.73;;;;;;;4.89;100.00;101406.97;5237935;28;20039;-78
2024/02/13 01:44:44;;;;;;;10.35;8.52;;;;;;;4.76;100.00;101403.31;5239576;28;20040;-78
2024/02/13 01:47:17;;;;;;;12.02;8.68;;;;;;;4.85;100.00;101413.22;5240391;28;20240;-79
2024/02/13 01:49:49;;;;;;;11.95;8.32;;;;;;;4.83;100.00;101410.69;5236411;28;20022;-78
2024/02/13 01:52:21;;;;;;;14.07;10.63;;;;;;;4.78;100.00;101404.09;5239286;28;20444;-78
2024/02/13 01:54:54;;;;;;;13.20;8.88;;;;;;;4.57;100.00;101377.47;5236900;28;20030;-78
2024/02/13 01:57:29;;;;;;;14.27;9.32;;;;;;;4.86;100.00;101414.91;5244125;28;20033;-78
2024/02/13 02:00:05;;;;;;;11.32;8.32;;;;;;;4.66;100.00;101384.78;5232410;28;20482;-78
2024/02/13 02:02:38;;;;;;;12.50;9.15;;;;;;;4.52;100.00;101369.91;5230067;28;20052;-78
2024/02/13 02:05:13;;;;;;;15.88;9.40;;;;;;;4.59;100.00;101380.81;5236871;28;20036;-78
2024/02/13 02:07:45;;;;;;;12.90;9.05;;;;;;;4.67;100.00;101394.25;5235973;28;20042;-79
2024/02/13 02:10:17;;;;;;;14.05;9.20;;;;;;;4.70;100.00;101401.00;5239597;28;20076;-78
2024/02/13 02:12:50;;;;;;;14.30;9.43;;;;;;;4.72;100.00;101396.59;5237361;28;20046;-78
2024/02/13 02:15:22;;;;;;;12.18;8.45;;;;;;;4.78;100.00;101411.88;5239680;28;20036;-78
2024/02/13 02:17:54;;;;;;;15.25;9.00;;;;;;;4.55;100.00;101380.13;5235383;28;20030;-78
2024/02/13 02:20:26;;;;;;;14.93;9.35;;;;;;;4.83;100.00;101412.47;5235706;28;20026;-79
2024/02/13 02:22:58;;;;;;;18.45;9.63;;;;;;;4.57;100.00;101383.47;5237988;28;20686;-78
2024/02/13 02:25:30;;;;;;;12.32;9.10;;;;;;;4.64;100.00;101397.81;5237329;28;20029;-78
2024/02/13 02:28:03;;;;;;;15.60;9.10;;;;;;;4.61;100.00;101391.94;5235032;28;20098;-78
2024/02/13 02:30:35;;;;;;;13.63;9.13;;;;;;;4.85;100.00;101429.66;5238385;28;20018;-79
2024/02/13 02:33:08;;;;;;;12.80;9.10;;;;;;;4.71;100.00;101406.16;5239489;28;20037;-79
2024/02/13 02:35:41;;;;;;;13.55;9.18;;;;;;;4.80;100.00;101417.81;5221384;28;20053;-79
2024/02/13 02:38:15;;;;;;;;;;;;;;;5.34;100.00;101421.00;5231799;28;20239;-78
2024/02/13 02:40:50;;;;;;;10.80;8.98;;;;;;;4.72;100.00;101381.84;5235335;28;20230;-78
2024/02/13 02:43:22;;;;;;;15.95;9.13;;;;;;;4.78;100.00;101396.28;5237773;28;20040;-79
2024/02/13 02:45:53;;;;;;;11.73;8.90;;;;;;;4.72;100.00;101388.81;5237705;28;20089;-79
2024/02/13 02:48:25;;;;;;;14.00;8.80;;;;;;;4.82;100.00;101410.78;5234659;28;20098;-78
2024/02/13 02:50:58;;;;;;;11.75;8.93;;;;;;;4.71;100.00;101394.94;5239777;28;20110;-79
2024/02/13 02:53:30;;;;;;;13.85;8.93;;;;;;;4.89;100.00;101417.34;5238558;28;20037;-78
2024/02/13 02:56:02;;;;;;;14.23;9.77;;;;;;;4.63;100.00;101370.19;5239859;28;20045;-79
2024/02/13 02:58:36;;;;;;;11.30;9.00;;;;;;;4.71;100.00;101385.38;5238232;28;20045;-79
2024/02/13 03:01:08;;;;;;;14.10;10.15;;;;;;;4.89;100.00;101412.16;5237659;28;20505;-78
2024/02/13 03:03:40;;;;;;;9.90;8.17;;;;;;;4.84;100.00;101404.56;5238027;28;20041;-79
2024/02/13 03:06:13;;;;;;;10.75;8.35;;;;;;;4.82;100.00;101409.03;5223057;28;20066;-78
2024/02/13 03:08:45;;;;;;;12.15;8.40;;;;;;;4.92;100.00;101418.91;5235707;28;20022;-79
2024/02/13 03:11:17;;;;;;;12.73;8.85;;;;;;;4.74;100.00;101393.00;5222130;28;20042;-78
2024/02/13 03:13:49;;;;;;;12.25;9.27;;;;;;;4.82;100.00;101410.78;5236383;28;20036;-79
2024/02/13 03:16:22;;;;;;;14.68;8.30;;;;;;;4.72;100.00;101397.44;5237491;28;20033;-79
2024/02/13 03:18:54;;;;;;;11.38;7.93;;;;;;;4.96;100.00;101429.06;5232993;28;20041;-79
2024/02/13 03:21:26;;;;;;;15.48;8.82;;;;;;;4.94;100.00;101427.50;5226142;28;20048;-79
2024/02/13 03:23:58;;;;;;;13.30;8.07;;;;;;;4.84;100.00;101416.72;5231774;28;20035;-79
2024/02/13 03:26:31;;;;;;;11.85;8.57;;;;;;;4.99;100.00;101430.66;5238444;28;20044;-79
2024/02/13 03:29:03;;;;;;;;;;;;;;;5.50;100.00;101434.88;5239496;28;20025;-79
2024/02/13 03:31:35;;;;;;;12.57;8.38;;;;;;;4.97;100.00;101425.56;5238150;28;19923;-79
2024/02/13 03:34:07;;;;;;;13.05;8.65;;;;;;;4.99;100.00;101441.06;5237259;28;20049;-79
2024/02/13 03:36:39;;;;;;;14.00;7.40;;;;;;;4.57;100.00;101380.88;5237033;28;20060;-79
2024/02/13 03:39:11;;;;;;;13.30;8.25;;;;;;;4.95;100.00;101442.97;5239460;28;20038;-79
2024/02/13 03:41:47;;;;;;;10.95;8.27;;;;;;;4.65;100.00;101403.84;5231636;28;20025;-79
2024/02/13 03:44:19;;;;;;;12.40;8.13;;;;;;;4.64;100.00;101403.00;5230771;28;20032;-79
2024/02/13 03:46:51;;;;;;;12.68;8.35;;;;;;;4.76;100.00;101424.91;5230914;28;20044;-79
2024/02/13 03:49:24;;;;;;;12.27;8.35;;;;;;;4.59;100.00;101405.00;5234651;28;20026;-79
2024/02/13 03:51:56;;;;;;;12.90;8.25;;;;;;;4.66;100.00;101417.66;5234015;28;20473;-79
2024/02/13 03:54:28;;;;;;;11.75;7.80;;;;;;;4.77;100.00;101430.94;5236574;28;20101;-79
2024/02/13 03:57:00;;;;;;;10.88;7.35;;;;;;;4.84;100.00;101456.50;5232809;28;20029;-79
2024/02/13 03:59:32;;;;;;;10.30;7.60;;;;;;;4.86;100.00;101453.84;5233252;28;20013;-79
2024/02/13 04:02:04;;;;;;;15.73;8.10;;;;;;;4.82;100.00;101454.91;5237269;28;20041;-79
2024/02/13 04:04:36;;;;;;;11.23;7.72;;;;;;;4.80;100.00;101454.16;5227654;28;20025;-79
2024/02/13 04:07:08;;;;;;;16.88;8.20;;;;;;;4.55;100.00;101416.47;5224265;28;20041;-79
2024/02/13 04:09:40;;;;;;;10.68;7.75;;;;;;;4.57;100.00;101426.75;5235535;28;20067;-78
2024/02/13 04:12:12;;;;;;;12.35;7.40;;;;;;;4.47;100.00;101416.03;5234099;28;20101;-79
2024/02/13 04:14:44;;;;;;;12.50;8.32;;;;;;;4.61;100.00;101431.72;5232115;28;20120;-79
2024/02/13 04:17:17;;;;;;;14.10;7.43;;;;;;;4.48;100.00;101412.50;5229906;28;20605;-78
2024/02/13 04:19:49;;;;;;;12.77;7.10;;;;;;;4.56;100.00;101427.69;5237696;28;20033;-78
2024/02/13 04:22:21;;;;;;;12.65;7.18;;;;;;;4.47;100.00;101416.03;5234796;28;20106;-79
2024/02/13 04:24:53;;;;;;;10.63;6.25;;;;;;;4.75;100.00;101462.16;5229098;28;20036;-79
2024/02/13 04:27:25;;;;;;;12.15;6.45;;;;;;;4.62;100.00;101433.41;5235965;28;20046;-79
2024/02/13 04:29:57;;;;;;;10.95;7.10;;;;;;;4.51;100.00;101416.69;5232877;28;20048;-79
2024/02/13 04:32:29;;;;;;;10.25;6.53;;;;;;;4.54;100.00;101424.31;5234999;28;20025;-79
2024/02/13 04:35:02;;;;;;;13.70;7.10;;;;;;;4.63;100.00;101440.28;5234637;28;20045;-79
2024/02/13 04:37:34;;;;;;;;;;;;;;;5.28;100.00;101462.91;5234423;28;20221;-78
2024/02/13 04:40:08;;;;;;;11.48;6.72;;;;;;;4.71;100.00;101454.63;5221864;28;19966;-79
2024/02/13 04:42:40;;;;;;;7.13;5.80;;;;;;;4.59;100.00;101446.53;5232598;28;20030;-78
2024/02/13 04:45:12;;;;;;;8.93;5.90;;;;;;;4.73;100.00;101465.75;5223950;28;20034;-79
2024/02/13 04:47:46;;;;;;;9.52;5.90;;;;;;;4.52;100.00;101445.16;5207506;28;20060;-79
2024/02/13 04:50:19;;;;;;;11.02;6.88;;;;;;;4.69;100.00;101477.22;5215803;28;20032;-79
2024/02/13 04:52:51;;;;;;;10.90;5.82;;;;;;;4.73;100.00;101483.91;5219640;28;20026;-79
2024/02/13 04:55:24;;;;;;;10.20;6.00;;;;;;;4.76;100.00;101494.16;5217409;28;20034;-79
2024/02/13 04:57:57;;;;;;;;;;;;;;;5.25;100.00;101483.84;5222113;28;20033;-78
2024/02/13 05:00:30;;;;;;;12.32;6.28;;;;;;;4.77;100.00;101485.44;5213966;28;20379;-79
2024/02/13 05:03:17;;;;;;;9.70;6.38;;;;;;;4.72;100.00;101477.06;5218369;28;20053;-79
2024/02/13 05:08:39;;;;;;;11.32;6.00;;;;;;;4.62;100.00;101463.69;5222712;28;20426;-79
2024/02/13 05:11:13;;;;;;;9.43;5.82;;;;;;;4.69;100.00;101482.41;5219627;28;20037;-79
2024/02/13 05:13:45;;;;;;;10.85;5.95;;;;;;;4.61;100.00;101473.22;5222135;28;20030;-79
2024/02/13 05:16:18;;;;;;;11.07;5.93;;;;;;;4.63;100.00;101492.19;5215867;28;20041;-78
2024/02/13 05:18:51;;;;;;;7.57;5.80;;;;;;;4.61;100.00;101475.81;5201119;28;20045;-78
2024/02/13 05:21:24;;;;;;;7.95;5.93;;;;;;;4.60;100.00;101484.53;5220598;28;20046;-79
2024/02/13 05:23:55;;;;;;;8.48;5.97;;;;;;;4.64;100.00;101486.06;5218960;28;20034;-78
2024/02/13 05:26:27;;;;;;;9.98;6.07;;;;;;;4.57;100.00;101482.09;5219399;28;20037;-78
2024/02/13 05:28:59;;;;;;;9.48;5.38;;;;;;;4.59;100.00;101484.63;5207928;28;20076;-78
2024/02/13 05:31:31;;;;;;;10.15;6.30;;;;;;;4.58;100.00;101494.16;5219961;28;20032;-78
2024/02/13 05:34:04;;;;;;;14.10;6.22;;;;;;;4.47;100.00;101470.50;5205368;28;20938;-78
2024/02/13 05:36:36;;;;;;;10.35;6.20;;;;;;;4.56;100.00;101480.41;5209754;28;20041;-77
2024/02/13 05:39:08;;;;;;;8.38;5.13;;;;;;;4.55;100.00;101485.69;5210666;28;20032;-78
2024/02/13 05:41:40;;;;;;;11.50;5.78;;;;;;;4.57;100.00;101482.09;5223134;28;20448;-78
2024/02/13 05:44:12;;;;;;;10.20;6.23;;;;;;;4.58;100.00;101483.78;5217535;28;20053;-78
2024/02/13 05:46:44;;;;;;;7.82;5.90;;;;;;;4.55;100.00;101488.28;5222452;28;20298;-78
2024/02/13 05:49:16;;;;;;;12.60;6.40;;;;;;;4.47;100.00;101475.69;5218839;28;20068;-78
2024/02/13 05:51:48;;;;;;;12.65;6.65;;;;;;;4.52;100.00;101478.91;5208292;28;20963;-78
2024/02/13 05:54:20;;;;;;;12.15;6.53;;;;;;;4.49;100.00;101470.41;5219065;28;20052;-78
2024/02/13 05:56:52;;;;;;;11.07;5.53;;;;;;;4.51;100.00;101487.59;5216886;28;20030;-78
2024/02/13 05:59:25;;;;;;;14.10;5.78;;;;;;;4.51;100.00;101497.13;5217843;28;20045;-78
2024/02/13 06:01:58;;;;;;;10.48;6.22;;;;;;;4.52;100.00;101496.22;5219734;28;20021;-78
2024/02/13 06:04:30;;;;;;;9.23;5.17;;;;;;;4.55;100.00;101502.09;5206904;28;20057;-78
2024/02/13 06:07:02;;;;;;;7.93;5.32;;;;;;;4.53;100.00;101495.28;5221748;28;20038;-78
2024/02/13 06:09:34;;;;;;;9.33;4.93;;;;;;;4.50;100.00;101496.28;5207598;28;20403;-80
2024/02/13 06:12:10;;;;;;;10.55;5.78;;;;;;;4.51;100.00;101507.50;5219546;28;20079;-78
2024/02/13 06:14:43;;;;;;;9.88;5.78;;;;;;;4.48;100.00;101497.28;5197690;28;20045;-78
2024/02/13 06:17:15;;;;;;;9.55;5.28;;;;;;;4.55;100.00;101507.28;5222665;28;20025;-78
2024/02/13 06:19:47;;;;;;;11.57;5.30;;;;;;;4.46;100.00;101489.56;5220912;28;20041;-78
2024/02/13 06:22:19;;;;;;;9.55;5.15;;;;;;;4.48;100.00;101486.91;5212180;28;20034;-78
2024/02/13 06:24:51;;;;;;;8.52;4.75;;;;;;;4.54;100.00;101504.75;5223591;28;20033;-78
2024/02/13 06:27:23;;;;;;;7.43;5.20;;;;;;;4.50;100.00;101503.22;5217525;28;20041;-78
2024/02/13 06:29:55;;;;;;;10.65;5.32;;;;;;;4.52;100.00;101497.06;5213939;28;20514;-78
2024/02/13 06:32:28;;;;;;;7.47;4.90;;;;;;;4.55;100.00;101504.69;5216722;28;20040;-78
2024/02/13 06:35:00;;;;;;;11.70;5.20;;;;;;;4.57;100.00;101502.84;5209706;28;20057;-77
2024/02/13 06:37:32;;;;;;;7.68;4.70;;;;;;;4.53;100.00;101503.91;5219988;28;20038;-78
2024/02/13 06:40:05;;;;;;;9.50;5.65;;;;;;;4.56;100.00;101506.38;5223310;28;20038;-78
2024/02/13 06:42:37;;;;;;;9.32;4.85;;;;;;;4.52;100.00;101504.84;5218098;28;20041;-78
2024/02/13 06:45:10;;;;;;;8.38;4.75;;;;;;;4.50;100.00;101501.47;5223754;28;20030;-78
2024/02/13 06:47:42;;;;;;;11.00;5.80;;;;;;;4.51;100.00;101513.53;5213071;28;20030;-78
2024/02/13 06:50:15;;;;;;;13.15;4.63;;;;;;;4.56;100.00;101515.91;5214242;28;20350;-77
2024/02/13 06:52:52;;;;;;;10.55;5.18;;;;;;;4.49;100.00;101504.97;5215331;28;20475;-77
2024/02/13 06:55:24;;;;;;;8.38;4.25;;;;;;;4.57;100.00;101522.78;5220322;28;20033;-77
2024/02/13 06:57:56;;;;;;;10.20;4.57;;;;;;;4.55;100.00;101525.47;5218675;28;20070;-77
2024/02/13 07:00:30;;;;;;;12.18;4.68;;;;;;;4.57;100.00;101525.38;5217192;28;20017;-76
2024/02/13 07:03:02;;;;;;;10.98;5.20;;;;;;;4.57;100.00;101531.41;5215570;28;20045;-77
2024/02/13 07:05:34;;;;;;;11.33;4.60;;;;;;;4.63;100.00;101538.06;5214867;28;20384;-78
2024/02/13 07:08:06;;;;;;;10.77;4.32;;;;;;;4.60;100.00;101530.41;5214883;28;20041;-77
2024/02/13 07:10:38;;;;;;;9.25;4.60;;;;;;;4.63;100.00;101543.25;5214219;28;20561;-77
2024/02/13 07:13:10;;;;;;;12.32;4.57;;;;;;;4.64;100.00;101548.34;5214932;28;20029;-76
2024/02/13 07:15:42;;;;;;;9.13;4.53;;;;;;;4.64;100.00;101540.56;5203267;28;20044;-76
2024/02/13 07:18:14;;;;;;;11.68;4.78;;;;;;;4.61;100.00;101540.72;5209004;28;20499;-76
2024/02/13 07:20:46;;;;;;;9.90;4.35;;;;;;;4.61;100.00;101532.91;5209336;28;20034;-77
2024/02/13 07:23:18;;;;;;;8.00;4.32;;;;;;;4.63;100.00;101538.91;5212723;28;20029;-77
2024/02/13 07:25:50;;;;;;;12.35;5.07;;;;;;;4.65;100.00;101541.41;5213520;28;20052;-77
2024/02/13 07:28:22;;;;;;;8.68;4.30;;;;;;;4.63;100.00;101549.28;5206058;28;20045;-77
2024/02/13 07:30:54;;;;;;;10.13;4.55;;;;;;;4.62;100.00;101539.81;5212904;28;20052;-77
2024/02/13 07:33:26;;;;;;;10.65;4.30;;;;;;;4.60;100.00;101552.00;5214580;28;20414;-77
2024/02/13 07:36:00;;;;;;;10.02;4.47;;;;;;;4.60;100.00;101558.97;5213157;28;20045;-77
2024/02/13 07:38:32;;;;;;;10.30;4.75;;;;;;;4.59;100.00;101558.13;5208572;28;20025;-76
2024/02/13 07:41:06;;;;;;;12.50;5.73;;;;;;;4.63;100.00;101562.25;5208145;28;20038;-76
2024/02/13 07:43:38;;;;;;;14.90;4.47;;;;;;;4.63;100.00;101572.63;5213951;28;20038;-76
2024/02/13 07:46:11;;;;;;;11.23;4.60;;;;;;;4.62;100.00;101570.97;5217355;28;20030;-76
2024/02/13 07:48:43;;;;;;;11.48;4.28;;;;;;;4.66;100.00;101570.78;5209192;28;20039;-76
2024/02/13 07:51:16;;;;;;;12.48;4.95;;;;;;;4.67;100.00;101570.72;5215811;28;20035;-76
2024/02/13 07:53:47;;;;;;;13.45;5.15;;;;;;;4.69;100.00;101563.69;5213410;28;20025;-76
2024/02/13 07:56:25;;;;;;;11.10;4.00;;;;;;;4.68;100.00;101567.22;5214669;28;20029;-76
2024/02/13 07:58:57;;;;;;;9.68;4.05;;;;;;;4.70;100.00;101559.34;5197183;28;20034;-76
2024/02/13 08:01:29;;;;;;;15.05;4.38;;;;;;;4.81;100.00;101572.63;5212337;28;20049;-76
2024/02/13 08:04:01;;;;;;;11.77;4.38;;;;;;;4.81;100.00;101570.03;5215964;28;20034;-76
2024/02/13 08:06:34;;;;;;;13.52;4.47;;;;;;;4.85;100.00;101579.38;5211163;28;20111;-76
2024/02/13 08:09:06;;;;;;;12.25;4.40;;;;;;;4.85;100.00;101579.38;5207508;28;20037;-76
2024/02/13 08:11:38;;;;;;;12.35;4.63;;;;;;;4.87;100.00;101582.72;5211835;28;20060;-76
2024/02/13 08:14:10;;;;;;;10.82;3.95;;;;;;;4.92;100.00;101580.75;5214656;28;20032;-76
2024/02/13 08:16:42;;;;;;;10.80;3.47;;;;;;;4.99;100.00;101586.47;5209608;28;20407;-76
2024/02/13 08:19:14;;;;;;;8.15;3.92;;;;;;;5.02;100.00;101581.97;5208807;28;20041;-77
2024/02/13 08:21:46;;;;;;;9.07;3.80;;;;;;;5.05;100.00;101592.22;5207864;28;20033;-76
2024/02/13 08:24:18;;;;;;;11.65;3.92;;;;;;;5.07;100.00;101585.16;5209613;28;20026;-76
2024/02/13 08:26:50;;;;;;;9.90;3.67;;;;;;;5.21;100.00;101594.03;5211285;28;20487;-76
2024/02/13 08:29:22;;;;;;;10.95;3.67;;;;;;;5.24;100.00;101593.91;5210317;28;20034;-77
2024/02/13 08:31:54;;;;;;;10.10;3.78;;;;;;;5.30;100.00;101597.03;5213047;28;20044;-76
2024/02/13 08:34:26;;;;;;;10.95;3.58;;;;;;;5.33;100.00;101590.81;5212428;28;20040;-77
2024/02/13 08:36:58;;;;;;;11.48;3.78;;;;;;;5.39;100.00;101592.28;5213392;28;20956;-76
2024/02/13 08:39:30;;;;;;;8.63;3.72;;;;;;;5.43;100.00;101592.03;5215170;28;20045;-76
2024/02/13 08:42:02;;;;;;;9.07;3.35;;;;;;;5.53;100.00;101597.59;5212445;28;20515;-76
2024/02/13 08:44:34;;;;;;;8.02;3.35;;;;;;;5.60;100.00;101594.59;5213901;28;20042;-76
2024/02/13 08:47:06;;;;;;;8.77;3.63;;;;;;;5.66;100.00;101593.44;5210989;28;20038;-76
2024/02/13 08:49:39;;;;;;;9.60;3.50;;;;;;;5.68;100.00;101595.94;5206499;28;20035;-76
2024/02/13 08:52:11;;;;;;;11.35;3.50;;;;;;;5.78;100.00;101600.59;5212226;28;20025;-76
2024/02/13 08:54:43;;;;;;;9.48;3.72;;;;;;;5.83;100.00;101600.34;5211570;28;20459;-76
2024/02/13 08:57:14;;;;;;;8.80;3.65;;;;;;;5.89;100.00;101604.41;5212919;28;20037;-76
2024/02/13 08:59:46;;;;;;;10.48;3.63;;;;;;;5.91;100.00;101597.34;5210274;28;20049;-76
2024/02/13 09:02:18;;;;;;;8.65;3.92;;;;;;;5.96;100.00;101609.22;5212826;28;20030;-76
2024/02/13 09:04:50;;;;;;;8.02;3.58;;;;;;;5.99;100.00;101609.06;5211464;28;20699;-76
2024/02/13 09:07:23;;;;;;;9.23;3.42;;;;;;;6.08;100.00;101610.31;5211489;28;20059;-76
2024/02/13 09:09:55;;;;;;;;;;;;;;;6.56;100.00;101605.97;5204423;28;20025;-76
2024/02/13 09:12:27;;;;;;;6.53;3.25;;;;;;;6.23;100.00;101616.47;5211808;28;20629;-76
2024/02/13 09:14:59;;;;;;;12.55;3.70;;;;;;;6.25;100.00;101612.00;5211394;28;20044;-76
2024/02/13 09:17:31;;;;;;;6.93;3.22;;;;;;;6.31;100.00;101622.94;5210893;28;20200;-76
2024/02/13 09:20:05;;;;;;;9.48;3.70;;;;;;;6.38;100.00;101617.41;5214528;28;20068;-76
2024/02/13 09:22:37;;;;;;;11.02;3.58;;;;;;;6.41;100.00;101615.47;5210777;28;20042;-76
2024/02/13 09:25:11;;;;;;;13.60;3.35;;;;;;;6.51;100.00;101623.59;5213084;28;20034;-76
2024/02/13 09:27:44;;;;;;;8.32;3.33;;;;;;;6.55;100.00;101631.19;5213279;28;20033;-77
2024/02/13 09:30:17;;;;;;;5.85;2.85;;;;;;;6.67;100.00;101615.81;5212208;28;20033;-77
2024/02/13 09:32:49;;;;;;;7.00;3.00;;;;;;;6.71;100.00;101625.94;5211087;28;20034;-75
2024/02/13 09:35:21;;;;;;;9.23;4.28;;;;;;;6.75;100.00;101624.00;5212800;28;20042;-75
2024/02/13 09:37:53;;;;;;;8.85;3.00;;;;;;;6.82;100.00;101630.56;5214288;28;20414;-77
2024/02/13 09:40:27;;;;;;;8.23;3.50;;;;;;;6.96;100.00;101629.75;5211437;28;20027;-76
2024/02/13 09:42:59;;;;;;;7.28;2.85;;;;;;;6.96;100.00;101630.59;5215538;28;20452;-76
2024/02/13 09:45:33;;;;;;;9.50;3.28;;;;;;;7.02;100.00;101624.22;5214834;28;20036;-76
2024/02/13 09:48:15;;;;;;;8.18;3.28;;;;;;;7.13;100.00;101621.81;5214082;28;20388;-76
2024/02/13 09:50:49;;;;;;;6.47;3.53;;;;;;;7.17;100.00;101619.88;5214834;28;20025;-77
2024/02/13 09:53:28;;;;;;;7.18;3.47;;;;;;;7.29;100.00;101619.16;5211265;28;20034;-76
2024/02/13 09:56:00;;;;;;;9.30;3.80;;;;;;;7.40;100.00;101637.63;5212293;28;20029;-76
2024/02/13 09:58:32;;;;;;;7.93;2.97;;;;;;;7.42;100.00;101633.13;5218021;28;20041;-76
2024/02/13 10:01:05;;;;;;;8.40;3.40;;;;;;;7.53;100.00;101638.56;5216025;28;20033;-77
2024/02/13 10:03:38;;;;;;;5.85;2.85;;;;;;;7.57;100.00;101621.78;5216316;28;20033;-76
2024/02/13 10:06:10;;;;;;;;;;;;;;;8.20;100.00;101624.97;5218670;28;20395;-77
2024/02/13 10:08:42;;;;;;;7.38;3.20;;;;;;;7.86;100.00;101639.25;5220935;28;20018;-78
2024/02/13 10:11:16;;;;;;;7.57;2.80;;;;;;;7.93;100.00;101638.78;5220199;28;20044;-77
2024/02/13 10:13:48;;;;;;;7.28;3.45;;;;;;;8.05;100.00;101631.97;5221686;28;20043;-78
2024/02/13 10:16:23;;;;;;;12.10;3.60;;;;;;;8.11;100.00;101633.38;5216301;28;20046;-78
2024/02/13 10:19:01;;;;;;;10.55;3.53;;;;;;;8.22;100.00;101634.38;5219801;28;20036;-77
2024/02/13 10:21:35;;;;;;;6.18;3.00;;;;;;;8.21;100.00;101632.69;5220328;28;20025;-77
2024/02/13 10:24:11;;;;;;;9.23;4.07;;;;;;;8.28;100.00;101613.09;5219048;28;20033;-78
2024/02/13 10:26:43;;;;;;;6.28;3.17;;;;;;;8.51;100.00;101626.50;5217388;28;20037;-77
2024/02/13 10:29:15;;;;;;;8.98;2.70;;;;;;;8.51;100.00;101623.91;5214034;28;20140;-77
2024/02/13 10:31:47;;;;;;;8.45;3.10;;;;;;;8.67;100.00;101616.75;5214987;28;20030;-77
2024/02/13 10:34:19;;;;;;;6.20;2.58;;;;;;;8.72;100.00;101619.09;5218632;28;20398;-77
2024/02/13 10:36:51;;;;;;;10.63;3.10;;;;;;;8.83;100.00;101615.78;5220793;28;20046;-77
2024/02/13 10:39:26;;;;;;;8.48;3.03;;;;;;;8.91;100.00;101610.91;5219144;28;20037;-77
2024/02/13 10:41:58;;;;;;;8.20;3.15;;;;;;;8.94;100.00;101614.16;5219516;28;20561;-77
2024/02/13 10:44:31;;;;;;;7.60;3.15;;;;;;;9.04;100.00;101619.59;5218569;28;20052;-77
2024/02/13 10:47:07;;;;;;;8.27;2.90;;;;;;;9.13;100.00;101626.84;5218181;28;20045;-76
2024/02/13 10:49:50;;;;;;;6.93;2.90;;;;;;;9.17;100.00;101620.47;5218697;28;20048;-77
2024/02/13 10:52:22;;;;;;;6.15;2.88;;;;;;;9.12;100.00;101619.09;5215306;28;20029;-77
2024/02/13 10:55:00;;;;;;;6.47;2.50;;;;;;;9.27;100.00;101628.53;5211350;28;20037;-77
2024/02/13 10:57:35;;;;;;;6.47;2.70;;;;;;;9.26;100.00;101629.47;5210257;28;20511;-77
2024/02/13 11:00:14;;;;;;;8.77;2.40;;;;;;;9.33;100.00;101630.72;5213109;28;20029;-77
2024/02/13 11:02:51;;;;;;;8.52;2.90;;;;;;;9.41;100.00;101630.22;5214697;28;20487;-76
2024/02/13 11:05:27;;;;;;;6.55;2.40;;;;;;;9.36;100.00;101622.69;5212604;28;20079;-77
2024/02/13 11:07:59;;;;;;;7.18;2.25;;;;;;;9.31;100.00;101632.59;5216104;28;20040;-76
2024/02/13 11:10:34;;;;;;;5.97;2.42;;;;;;;9.31;100.00;101637.84;5216087;28;20037;-76
2024/02/13 11:13:09;;;;;;;5.78;2.45;;;;;;;9.33;100.00;101635.13;5214757;28;20042;-77
2024/02/13 11:15:41;;;;;;;6.07;2.22;;;;;;;9.40;100.00;101641.63;5215533;28;20038;-77
2024/02/13 11:18:13;;;;;;;8.30;2.63;;;;;;;9.44;100.00;101635.25;5215828;28;20822;-77
2024/02/13 11:20:50;;;;;;;7.88;3.03;;;;;;;9.51;100.00;101639.13;5219201;28;20033;-77
2024/02/13 11:23:27;;;;;;;5.28;2.08;;;;;;;9.55;100.00;101640.59;5216634;28;20044;-77
2024/02/13 11:26:00;;;;;;;4.65;2.30;;;;;;;9.52;100.00;101635.56;5213954;28;20315;-77
2024/02/13 11:28:34;;;;;;;6.03;2.63;;;;;;;9.58;100.00;101619.44;5216065;28;20052;-77
2024/02/13 11:31:14;;;;;;;6.38;2.45;;;;;;;9.80;100.00;101625.81;5216313;28;20029;-77
2024/02/13 11:34:06;;;;;;;4.65;2.40;;;;;;;10.05;100.00;101624.97;5214336;28;20029;-77
2024/02/13 11:36:39;;;;;;;7.10;2.28;;;;;;;9.86;100.00;101617.56;5219840;28;20056;-77
2024/02/13 11:39:12;;;;;;;5.68;2.15;;;;;;;9.88;100.00;101613.88;5213276;28;20391;-77
2024/02/13 11:41:45;;;;;;;4.20;2.10;;;;;;;10.08;100.00;101622.97;5208709;28;20044;-77
2024/02/13 11:44:20;;;;;;;5.53;1.88;;;;;;;10.14;100.00;101626.91;5216512;28;20514;-77
2024/02/13 11:46:54;;;;;;;5.32;2.20;;;;;;;10.11;100.00;101630.59;5212997;28;20045;-76
2024/02/13 11:49:26;;;;;;;6.07;2.03;;;;;;;10.14;100.00;101630.38;5215841;28;20046;-77